createdAt,value
2017-09-26T00:01:18.741Z,21.87
2017-09-26T00:03:47.630Z,23.93
2017-09-26T00:06:16.514Z,22.93
2017-09-26T00:08:45.415Z,21.90
2017-09-26T00:11:14.308Z,21.93
2017-09-26T00:13:43.204Z,20.47
2017-09-26T00:16:12.086Z,22.43
2017-09-26T00:18:41.008Z,21.80
2017-09-26T00:21:09.127Z,21.40
2017-09-26T00:23:37.256Z,21.13
2017-09-26T00:26:05.399Z,21.73
2017-09-26T00:28:34.291Z,21.93
2017-09-26T00:31:03.196Z,20.83
2017-09-26T00:33:32.087Z,20.10
2017-09-26T00:36:04.344Z,18.50
2017-09-26T00:38:33.235Z,18.97
2017-09-26T00:41:02.139Z,17.30
2017-09-26T00:43:31.024Z,17.70
2017-09-26T00:45:59.923Z,18.50
2017-09-26T00:48:28.060Z,18.13
2017-09-26T00:50:56.194Z,19.00
2017-09-26T00:53:24.310Z,17.10
2017-09-26T00:55:52.441Z,19.00
2017-09-26T00:58:20.585Z,18.00
2017-09-26T01:00:49.479Z,18.77
2017-09-26T01:03:18.363Z,19.20
2017-09-26T01:08:52.820Z,17.93
2017-09-26T01:11:20.954Z,16.93
2017-09-26T01:13:49.070Z,18.40
2017-09-26T01:16:17.207Z,17.23
2017-09-26T01:18:45.323Z,17.13
2017-09-26T01:21:13.452Z,18.17
2017-09-26T01:23:41.583Z,17.50
2017-09-26T01:26:09.718Z,17.73
2017-09-26T01:28:38.619Z,19.30
2017-09-26T01:31:07.516Z,17.87
2017-09-26T01:33:36.399Z,17.20
2017-09-26T01:36:05.300Z,17.53
2017-09-26T01:38:33.421Z,16.57
2017-09-26T01:41:19.467Z,18.60
2017-09-26T01:43:48.357Z,18.37
2017-09-26T01:46:17.255Z,17.47
2017-09-26T01:48:45.390Z,16.97
2017-09-26T01:51:13.523Z,19.40
2017-09-26T01:53:41.647Z,17.70
2017-09-26T01:56:15.265Z,17.80
2017-09-26T01:58:54.057Z,17.57
2017-09-26T02:01:22.199Z,18.07
2017-09-26T02:03:50.324Z,17.70
2017-09-26T02:06:19.227Z,17.27
2017-09-26T02:08:48.123Z,17.47
2017-09-26T02:11:17.015Z,16.30
2017-09-26T02:13:45.907Z,17.60
2017-09-26T02:16:14.804Z,16.97
2017-09-26T02:18:43.696Z,17.23
2017-09-26T02:21:11.827Z,18.07
2017-09-26T02:23:39.950Z,18.43
2017-09-26T02:26:08.087Z,18.83
2017-09-26T02:28:36.215Z,18.93
2017-09-26T02:31:04.358Z,19.20
2017-09-26T02:33:33.247Z,19.37
2017-09-26T02:36:02.151Z,19.20
2017-09-26T02:38:31.036Z,20.00
2017-09-26T02:40:59.935Z,16.53
2017-09-26T02:43:28.820Z,18.07
2017-09-26T02:45:57.715Z,17.87
2017-09-26T02:48:26.607Z,17.77
2017-09-26T02:50:55.524Z,20.10
2017-09-26T02:53:23.643Z,20.70
2017-09-26T02:55:51.778Z,24.43
2017-09-26T02:58:19.906Z,22.30
2017-09-26T03:00:48.808Z,20.83
2017-09-26T03:03:17.691Z,20.53
2017-09-26T03:05:46.587Z,21.50
2017-09-26T03:08:15.475Z,19.33
2017-09-26T03:10:44.380Z,20.70
2017-09-26T03:13:13.263Z,19.87
2017-09-26T03:15:42.226Z,20.80
2017-09-26T03:18:10.350Z,22.40
2017-09-26T03:20:38.483Z,20.37
2017-09-26T03:23:06.609Z,20.60
2017-09-26T03:25:34.743Z,20.10
2017-09-26T03:28:03.638Z,21.33
2017-09-26T03:30:32.542Z,19.87
2017-09-26T03:33:00.676Z,18.90
2017-09-26T03:35:28.823Z,20.03
2017-09-26T03:37:56.951Z,19.17
2017-09-26T03:40:25.855Z,18.60
2017-09-26T03:42:54.759Z,18.50
2017-09-26T03:45:22.886Z,21.57
2017-09-26T03:47:51.023Z,20.87
2017-09-26T03:50:19.166Z,20.60
2017-09-26T03:52:48.058Z,21.00
2017-09-26T03:55:16.951Z,22.17
2017-09-26T03:57:45.868Z,21.57
2017-09-26T04:00:13.987Z,20.20
2017-09-26T04:02:42.123Z,19.90
2017-09-26T04:05:10.256Z,18.67
2017-09-26T04:07:39.156Z,18.67
2017-09-26T04:10:08.047Z,19.33
2017-09-26T04:12:36.961Z,25.67
2017-09-26T04:15:05.086Z,27.13
2017-09-26T04:17:33.225Z,22.03
2017-09-26T04:20:02.126Z,18.27
2017-09-26T04:22:30.267Z,17.13
2017-09-26T04:24:58.401Z,20.37
2017-09-26T04:27:26.543Z,18.57
2017-09-26T04:29:54.668Z,18.90
2017-09-26T04:32:23.575Z,18.80
2017-09-26T04:34:51.700Z,19.10
2017-09-26T04:37:19.845Z,17.80
2017-09-26T04:39:48.737Z,18.43
2017-09-26T04:42:17.658Z,19.23
2017-09-26T04:44:45.794Z,18.73
2017-09-26T04:47:13.933Z,18.03
2017-09-26T04:49:42.842Z,19.40
2017-09-26T04:52:10.979Z,19.30
2017-09-26T04:54:39.124Z,19.53
2017-09-26T04:57:08.035Z,19.93
2017-09-26T04:59:36.172Z,20.17
2017-09-26T05:02:05.095Z,21.40
2017-09-26T05:04:33.175Z,20.20
2017-09-26T05:07:01.262Z,19.00
2017-09-26T05:09:29.331Z,20.13
2017-09-26T05:11:57.420Z,19.10
2017-09-26T05:14:26.258Z,18.73
2017-09-26T05:16:54.349Z,18.93
2017-09-26T05:19:22.444Z,17.70
2017-09-26T05:21:50.519Z,16.93
2017-09-26T05:24:18.587Z,15.70
2017-09-26T05:26:46.772Z,18.37
2017-09-26T05:29:15.615Z,17.20
2017-09-26T05:31:43.704Z,18.37
2017-09-26T05:34:11.779Z,18.57
2017-09-26T05:36:39.861Z,18.60
2017-09-26T05:39:07.952Z,20.83
2017-09-26T05:41:36.809Z,20.80
2017-09-26T05:44:05.095Z,19.80
2017-09-26T05:46:33.171Z,19.67
2017-09-26T05:49:01.244Z,20.77
2017-09-26T05:51:29.332Z,19.87
2017-09-26T05:53:57.403Z,21.30
2017-09-26T05:56:25.489Z,21.97
2017-09-26T05:58:54.343Z,22.37
2017-09-26T06:01:22.427Z,20.20
2017-09-26T06:03:50.498Z,21.33
2017-09-26T06:06:18.595Z,21.27
2017-09-26T06:08:47.427Z,19.90
2017-09-26T06:11:15.643Z,19.50
2017-09-26T06:13:43.723Z,20.50
2017-09-26T06:16:11.800Z,19.70
2017-09-26T06:18:39.880Z,20.17
2017-09-26T06:21:08.707Z,22.10
2017-09-26T06:23:37.551Z,21.00
2017-09-26T06:26:05.618Z,24.43
2017-09-26T06:28:33.704Z,23.17
2017-09-26T06:31:02.560Z,24.03
2017-09-26T06:33:30.662Z,25.00
2017-09-26T06:35:59.511Z,23.27
2017-09-26T06:38:27.632Z,22.47
2017-09-26T06:40:56.484Z,22.83
2017-09-26T06:43:24.577Z,21.97
2017-09-26T06:45:52.655Z,22.80
2017-09-26T06:48:20.735Z,23.27
2017-09-26T06:50:49.584Z,23.17
2017-09-26T06:53:17.664Z,20.73
2017-09-26T06:55:45.743Z,20.47
2017-09-26T06:58:13.828Z,22.00
2017-09-26T07:00:41.898Z,22.57
2017-09-26T07:03:09.979Z,22.47
2017-09-26T07:05:38.060Z,26.10
2017-09-26T07:08:06.921Z,24.20
2017-09-26T07:10:35.015Z,25.77
2017-09-26T07:13:03.100Z,22.27
2017-09-26T07:15:31.196Z,26.57
2017-09-26T07:17:59.284Z,27.23
2017-09-26T07:20:27.359Z,26.97
2017-09-26T07:22:55.450Z,27.37
2017-09-26T07:25:23.536Z,27.10
2017-09-26T07:27:51.628Z,26.90
2017-09-26T07:30:19.709Z,26.10
2017-09-26T07:32:48.591Z,25.30
2017-09-26T07:35:16.656Z,22.70
2017-09-26T07:37:44.752Z,21.60
2017-09-26T07:40:13.610Z,22.20
2017-09-26T07:42:41.679Z,21.43
2017-09-26T07:45:09.772Z,22.17
2017-09-26T07:47:37.847Z,25.20
2017-09-26T07:50:05.932Z,25.23
2017-09-26T07:52:34.785Z,28.67
2017-09-26T07:55:02.870Z,22.30
2017-09-26T07:57:30.944Z,24.73
2017-09-26T07:59:59.032Z,21.47
2017-09-26T08:02:27.368Z,21.97
2017-09-26T08:04:55.685Z,21.43
2017-09-26T08:07:24.049Z,24.03
2017-09-26T08:09:52.383Z,26.50
2017-09-26T08:12:20.463Z,24.23
2017-09-26T08:14:48.767Z,25.70
2017-09-26T08:17:16.844Z,25.00
2017-09-26T08:19:44.927Z,29.07
2017-09-26T08:22:12.999Z,28.03
2017-09-26T08:24:41.547Z,27.57
2017-09-26T08:27:09.623Z,26.97
2017-09-26T08:29:38.475Z,28.43
2017-09-26T08:32:07.319Z,25.10
2017-09-26T08:34:35.412Z,24.40
2017-09-26T08:37:03.496Z,23.87
2017-09-26T08:39:31.576Z,23.60
2017-09-26T08:42:00.428Z,24.20
2017-09-26T08:44:28.516Z,24.40
2017-09-26T08:46:56.608Z,23.13
2017-09-26T08:49:24.679Z,24.27
2017-09-26T08:51:52.803Z,22.60
2017-09-26T08:54:20.886Z,23.80
2017-09-26T08:56:48.967Z,25.33
2017-09-26T08:59:17.045Z,23.03
2017-09-26T09:01:45.147Z,23.63
2017-09-26T09:04:13.995Z,22.23
2017-09-26T09:06:42.077Z,21.17
2017-09-26T09:09:10.159Z,21.70
2017-09-26T09:11:38.239Z,22.23
2017-09-26T09:14:06.321Z,21.93
2017-09-26T09:16:35.171Z,20.83
2017-09-26T09:19:03.261Z,21.20
2017-09-26T09:21:31.343Z,20.40
2017-09-26T09:23:59.423Z,21.67
2017-09-26T09:26:27.492Z,21.87
2017-09-26T09:28:55.575Z,23.60
2017-09-26T09:31:23.652Z,20.70
2017-09-26T09:33:51.748Z,19.60
2017-09-26T09:36:20.596Z,17.40
2017-09-26T09:38:48.679Z,19.80
2017-09-26T09:41:16.743Z,19.20
2017-09-26T09:43:44.825Z,19.57
2017-09-26T09:46:12.899Z,18.73
2017-09-26T09:48:40.989Z,17.50
2017-09-26T09:51:09.839Z,18.77
2017-09-26T09:53:37.939Z,20.37
2017-09-26T09:56:06.803Z,20.03
2017-09-26T09:58:34.891Z,20.90
2017-09-26T10:01:02.972Z,17.90
2017-09-26T10:03:31.065Z,17.50
2017-09-26T10:05:59.908Z,18.23
2017-09-26T10:08:28.004Z,18.63
2017-09-26T10:10:56.087Z,18.17
2017-09-26T10:13:24.171Z,17.10
2017-09-26T10:15:53.019Z,18.97
2017-09-26T10:18:21.107Z,17.00
2017-09-26T10:20:49.174Z,16.83
2017-09-26T10:23:17.264Z,16.80
2017-09-26T10:25:45.342Z,17.50
2017-09-26T10:28:14.188Z,17.50
2017-09-26T10:30:42.276Z,17.67
2017-09-26T10:33:10.352Z,16.87
2017-09-26T10:35:38.432Z,17.63
2017-09-26T10:38:06.519Z,18.23
2017-09-26T10:40:34.599Z,16.87
2017-09-26T10:43:03.457Z,16.90
2017-09-26T10:45:31.565Z,17.10
2017-09-26T10:48:00.426Z,17.63
2017-09-26T10:50:28.559Z,16.90
2017-09-26T10:52:56.640Z,17.53
2017-09-26T10:55:24.720Z,17.87
2017-09-26T10:57:52.816Z,16.27
2017-09-26T11:00:20.899Z,18.20
2017-09-26T11:02:48.980Z,17.33
2017-09-26T11:05:17.065Z,17.20
2017-09-26T11:07:45.912Z,16.70
2017-09-26T11:10:14.004Z,16.67
2017-09-26T11:12:42.082Z,17.03
2017-09-26T11:15:10.168Z,16.07
2017-09-26T11:17:39.016Z,15.70
2017-09-26T11:20:07.108Z,16.20
2017-09-26T11:22:35.196Z,17.80
2017-09-26T11:25:04.285Z,16.40
2017-09-26T11:27:32.364Z,17.80
2017-09-26T11:30:00.439Z,17.70
2017-09-26T11:32:28.513Z,16.10
2017-09-26T11:34:56.593Z,18.97
2017-09-26T11:37:25.424Z,16.33
2017-09-26T11:39:53.519Z,17.07
2017-09-26T11:42:21.592Z,16.80
2017-09-26T11:44:49.680Z,17.20
2017-09-26T11:47:17.764Z,16.80
2017-09-26T11:49:45.844Z,14.67
2017-09-26T11:52:13.936Z,17.37
2017-09-26T11:54:42.802Z,16.27
2017-09-26T11:57:10.877Z,18.90
2017-09-26T11:59:38.961Z,17.60
2017-09-26T12:02:07.807Z,17.50
2017-09-26T12:04:35.905Z,16.73
2017-09-26T12:07:04.147Z,15.03
2017-09-26T12:09:32.233Z,16.80
2017-09-26T12:12:00.304Z,17.60
2017-09-26T12:14:28.375Z,14.67
2017-09-26T12:16:56.449Z,16.37
2017-09-26T12:19:24.537Z,15.13
2017-09-26T12:21:52.607Z,15.77
2017-09-26T12:24:20.700Z,16.90
2017-09-26T12:26:48.784Z,18.47
2017-09-26T12:29:17.648Z,17.47
2017-09-26T12:31:45.733Z,17.13
2017-09-26T12:34:14.587Z,17.73
2017-09-26T12:36:42.668Z,16.03
2017-09-26T12:39:10.739Z,16.33
2017-09-26T12:41:38.828Z,16.97
2017-09-26T12:44:06.901Z,17.30
2017-09-26T12:46:34.979Z,17.03
2017-09-26T12:49:03.052Z,16.27
2017-09-26T12:51:31.137Z,16.10
2017-09-26T12:53:59.212Z,17.70
2017-09-26T12:56:28.070Z,17.70
2017-09-26T12:58:56.135Z,18.80
2017-09-26T13:01:24.216Z,17.33
2017-09-26T13:03:52.295Z,15.83
2017-09-26T13:06:20.384Z,17.30
2017-09-26T13:08:48.443Z,16.40
2017-09-26T13:11:16.527Z,16.03
2017-09-26T13:13:44.596Z,14.57
2017-09-26T13:16:12.677Z,16.47
2017-09-26T13:18:40.763Z,15.40
2017-09-26T13:21:09.612Z,14.90
2017-09-26T13:23:37.685Z,14.33
2017-09-26T13:26:05.780Z,13.93
2017-09-26T13:28:33.858Z,14.17
2017-09-26T13:31:01.933Z,13.40
2017-09-26T13:33:30.020Z,13.53
2017-09-26T13:35:58.872Z,11.93
2017-09-26T13:38:26.960Z,14.37
2017-09-26T13:40:55.048Z,13.67
2017-09-26T13:43:23.901Z,13.40
2017-09-26T13:45:51.987Z,12.47
2017-09-26T13:48:20.060Z,12.80
2017-09-26T13:50:48.149Z,13.63
2017-09-26T13:53:16.217Z,14.70
2017-09-26T13:55:44.293Z,13.53
2017-09-26T13:58:12.373Z,13.63
2017-09-26T14:00:41.224Z,13.40
2017-09-26T14:03:09.295Z,12.40
2017-09-26T14:05:37.369Z,13.80
2017-09-26T14:08:05.495Z,12.50
2017-09-26T14:10:34.347Z,12.70
2017-09-26T14:13:02.432Z,14.00
2017-09-26T14:15:30.515Z,13.13
2017-09-26T14:17:59.367Z,12.97
2017-09-26T14:20:27.455Z,11.57
2017-09-26T14:22:55.540Z,13.47
2017-09-26T14:25:23.624Z,12.53
2017-09-26T14:27:52.480Z,12.43
2017-09-26T14:30:20.580Z,10.90
2017-09-26T14:32:48.646Z,12.13
2017-09-26T14:35:16.729Z,12.43
2017-09-26T14:37:45.577Z,12.00
2017-09-26T14:40:13.739Z,11.40
2017-09-26T14:42:41.840Z,12.43
2017-09-26T14:45:09.920Z,11.43
2017-09-26T14:47:38.035Z,11.67
2017-09-26T14:50:06.128Z,11.90
2017-09-26T14:52:34.231Z,12.00
2017-09-26T14:55:02.327Z,11.73
2017-09-26T14:57:30.426Z,11.90
2017-09-26T14:59:59.251Z,11.37
2017-09-26T15:02:27.359Z,11.00
2017-09-26T15:04:55.435Z,11.30
2017-09-26T15:07:23.532Z,12.23
2017-09-26T15:09:52.417Z,13.00
2017-09-26T15:12:21.308Z,13.27
2017-09-26T15:14:50.156Z,12.77
2017-09-26T15:17:18.308Z,11.87
2017-09-26T15:19:47.158Z,13.03
2017-09-26T15:22:16.070Z,12.60
2017-09-26T15:24:44.919Z,13.13
2017-09-26T15:27:13.007Z,13.83
2017-09-26T15:29:41.091Z,13.17
2017-09-26T15:32:09.962Z,13.03
2017-09-26T15:34:38.036Z,14.47
2017-09-26T15:37:06.125Z,15.70
2017-09-26T15:39:35.027Z,14.00
2017-09-26T15:42:03.866Z,14.87
2017-09-26T15:44:31.952Z,13.40
2017-09-26T15:47:00.050Z,13.60
2017-09-26T15:49:28.899Z,13.30
2017-09-26T15:51:56.991Z,13.80
2017-09-26T15:54:25.072Z,13.67
2017-09-26T15:56:53.162Z,13.63
2017-09-26T15:59:22.039Z,14.30
2017-09-26T16:01:50.125Z,13.20
2017-09-26T16:04:18.983Z,14.20
2017-09-26T16:06:47.060Z,13.90
2017-09-26T16:09:15.144Z,13.70
2017-09-26T16:11:43.223Z,12.80
2017-09-26T16:14:11.298Z,12.93
2017-09-26T16:16:39.382Z,13.00
2017-09-26T16:19:08.231Z,13.20
2017-09-26T16:21:36.320Z,12.80
2017-09-26T16:24:04.401Z,13.03
2017-09-26T16:26:32.484Z,14.73
2017-09-26T16:29:01.330Z,14.50
2017-09-26T16:31:29.410Z,14.30
2017-09-26T16:33:57.494Z,15.30
2017-09-26T16:36:25.579Z,14.27
2017-09-26T16:38:53.651Z,15.13
2017-09-26T16:41:21.737Z,14.20
2017-09-26T16:43:50.571Z,15.57
2017-09-26T16:46:18.711Z,14.13
2017-09-26T16:48:47.561Z,14.77
2017-09-26T16:51:15.645Z,15.63
2017-09-26T16:53:43.715Z,14.73
2017-09-26T16:56:11.804Z,15.90
2017-09-26T16:58:39.878Z,15.47
2017-09-26T17:01:08.736Z,13.70
2017-09-26T17:03:36.803Z,15.70
2017-09-26T17:06:04.902Z,15.93
2017-09-26T17:08:32.979Z,19.70
2017-09-26T17:11:01.078Z,17.97
2017-09-26T17:13:29.915Z,18.30
2017-09-26T17:15:58.384Z,17.77
2017-09-26T17:18:26.472Z,16.27
2017-09-26T17:20:54.559Z,15.97
2017-09-26T17:23:22.652Z,19.13
2017-09-26T17:25:51.494Z,18.80
2017-09-26T17:28:19.587Z,16.80
2017-09-26T17:30:47.667Z,18.20
2017-09-26T17:33:15.756Z,18.63
2017-09-26T17:35:43.822Z,22.30
2017-09-26T17:38:11.903Z,19.73
2017-09-26T17:40:40.747Z,19.97
2017-09-26T17:43:08.832Z,19.00
2017-09-26T17:45:36.903Z,19.97
2017-09-26T17:48:04.990Z,19.43
2017-09-26T17:50:33.079Z,27.57
2017-09-26T17:53:01.159Z,26.90
2017-09-26T17:55:30.008Z,26.50
2017-09-26T17:57:58.088Z,29.20
2017-09-26T18:00:26.160Z,23.17
2017-09-26T18:02:54.256Z,22.07
2017-09-26T18:05:22.327Z,23.33
2017-09-26T18:07:50.407Z,22.80
2017-09-26T18:10:18.484Z,20.00
2017-09-26T18:12:46.567Z,22.10
2017-09-26T18:15:15.412Z,19.80
2017-09-26T18:17:43.499Z,24.27
2017-09-26T18:20:11.619Z,22.67
2017-09-26T18:22:40.476Z,22.07
2017-09-26T18:25:08.552Z,24.23
2017-09-26T18:27:36.683Z,25.17
2017-09-26T18:30:04.756Z,25.63
2017-09-26T18:32:32.887Z,24.60
2017-09-26T18:35:01.799Z,25.13
2017-09-26T18:37:29.926Z,22.90
2017-09-26T18:39:58.046Z,24.60
2017-09-26T18:42:26.175Z,23.03
2017-09-26T18:44:54.296Z,30.67
2017-09-26T18:47:22.443Z,24.07
2017-09-26T18:49:51.340Z,21.20
2017-09-26T18:52:20.187Z,22.70
2017-09-26T18:55:01.312Z,22.20
2017-09-26T18:57:30.202Z,24.93
2017-09-26T18:59:59.092Z,23.67
2017-09-26T19:02:28.004Z,22.60
2017-09-26T19:04:56.139Z,23.07
2017-09-26T19:07:24.285Z,23.40
2017-09-26T19:09:53.174Z,24.97
2017-09-26T19:12:21.308Z,22.00
2017-09-26T19:14:50.225Z,21.57
2017-09-26T19:17:18.375Z,24.03
2017-09-26T19:19:47.257Z,23.60
2017-09-26T19:22:16.156Z,25.40
2017-09-26T19:24:44.812Z,25.30
2017-09-26T19:27:13.070Z,26.47
2017-09-26T19:29:41.213Z,24.03
2017-09-26T19:32:09.334Z,25.40
2017-09-26T19:34:37.509Z,26.03
2017-09-26T19:37:05.709Z,26.63
2017-09-26T19:39:34.612Z,26.80
2017-09-26T19:42:02.748Z,27.30
2017-09-26T19:44:30.877Z,34.80
2017-09-26T19:46:59.030Z,37.60
2017-09-26T19:49:27.915Z,32.50
2017-09-26T19:51:56.807Z,35.13
2017-09-26T19:54:25.699Z,33.10
2017-09-26T19:56:54.543Z,30.50
2017-09-26T19:59:22.681Z,28.27
2017-09-26T20:01:50.815Z,31.17
2017-09-26T20:04:18.944Z,29.67
2017-09-26T20:06:47.107Z,26.37
2017-09-26T20:09:15.192Z,28.53
2017-09-26T20:11:43.316Z,25.33
2017-09-26T20:14:11.479Z,25.87
2017-09-26T20:16:39.610Z,24.20
2017-09-26T20:19:07.758Z,23.63
2017-09-26T20:21:36.647Z,20.97
2017-09-26T20:24:05.673Z,25.93
2017-09-26T20:26:33.791Z,26.47
2017-09-26T20:29:02.364Z,25.00
2017-09-26T20:31:30.439Z,27.37
2017-09-26T20:33:58.576Z,24.90
2017-09-26T20:36:26.651Z,23.60
2017-09-26T20:38:55.550Z,23.13
2017-09-26T20:41:23.691Z,25.80
2017-09-26T20:43:51.797Z,27.50
2017-09-26T20:46:19.872Z,26.60
2017-09-26T20:48:47.951Z,26.70
2017-09-26T20:51:17.563Z,25.40
2017-09-26T20:53:45.648Z,24.93
2017-09-26T20:56:13.741Z,25.13
2017-09-26T20:58:42.596Z,25.80
2017-09-26T21:01:10.679Z,24.83
2017-09-26T21:03:38.803Z,24.07
2017-09-26T21:06:06.890Z,23.93
2017-09-26T21:08:34.968Z,26.33
2017-09-26T21:11:03.043Z,24.93
2017-09-26T21:13:31.141Z,25.00
2017-09-26T21:15:59.222Z,25.50
2017-09-26T21:18:27.377Z,26.20
2017-09-26T21:20:55.456Z,25.87
2017-09-26T21:23:23.571Z,23.93
2017-09-26T21:25:52.419Z,25.80
2017-09-26T21:28:20.517Z,25.90
2017-09-26T21:30:48.603Z,26.27
2017-09-26T21:33:16.708Z,27.23
2017-09-26T21:35:44.792Z,27.20
2017-09-26T21:38:12.899Z,29.93
2017-09-26T21:40:40.979Z,29.00
2017-09-26T21:43:09.069Z,29.60
2017-09-26T21:45:37.919Z,33.13
2017-09-26T21:48:06.018Z,28.33
2017-09-26T21:50:34.105Z,28.60
2017-09-26T21:53:02.954Z,25.80
2017-09-26T21:55:31.044Z,28.37
2017-09-26T21:57:59.131Z,27.80
2017-09-26T22:00:27.288Z,27.77
2017-09-26T22:02:55.384Z,26.10
2017-09-26T22:05:24.236Z,28.40
2017-09-26T22:07:52.345Z,28.40
2017-09-26T22:10:21.191Z,32.03
2017-09-26T22:12:49.328Z,27.33
2017-09-26T22:15:17.420Z,26.53
2017-09-26T22:17:46.277Z,28.20
2017-09-26T22:20:15.117Z,26.00
2017-09-26T22:22:43.198Z,23.30
2017-09-26T22:25:11.285Z,23.80
2017-09-26T22:27:39.360Z,26.00
2017-09-26T22:30:07.452Z,26.57
2017-09-26T22:32:36.308Z,26.10
2017-09-26T22:35:04.431Z,24.90
2017-09-26T22:37:33.276Z,24.97
2017-09-26T22:40:01.371Z,25.10
2017-09-26T22:42:29.507Z,24.13
2017-09-26T22:44:58.528Z,24.30
2017-09-26T22:47:26.602Z,27.77
2017-09-26T22:49:54.703Z,26.50
2017-09-26T22:52:23.551Z,25.03
2017-09-26T22:54:51.649Z,25.43
2017-09-26T22:57:19.727Z,22.60
2017-09-26T22:59:47.807Z,25.50
2017-09-26T23:02:16.660Z,24.80
2017-09-26T23:04:44.757Z,24.77
2017-09-26T23:07:12.836Z,25.57
2017-09-26T23:09:41.699Z,23.30
2017-09-26T23:12:09.773Z,24.43
2017-09-26T23:14:37.868Z,24.67
2017-09-26T23:17:05.949Z,23.87
2017-09-26T23:19:34.807Z,25.30
2017-09-26T23:22:02.898Z,26.30
2017-09-26T23:24:30.987Z,26.67
2017-09-26T23:26:59.844Z,25.43
2017-09-26T23:29:27.936Z,25.53
2017-09-26T23:31:56.016Z,26.27
2017-09-26T23:34:24.103Z,25.30
2017-09-26T23:36:52.952Z,25.00
2017-09-26T23:39:21.039Z,25.40
2017-09-26T23:41:49.116Z,25.07
2017-09-26T23:44:17.207Z,24.13
2017-09-26T23:46:46.060Z,26.80
2017-09-26T23:49:14.152Z,26.73
2017-09-26T23:51:42.238Z,29.47
2017-09-26T23:54:10.323Z,26.47
2017-09-26T23:56:39.166Z,26.63
2017-09-26T23:59:07.264Z,26.57
